Список аэропортов
Фактическая погода:

26 апреля, 12:00
Температура: +23°C (+23.0*)
Ветер: западный 3 м/с
Давление: *762 мм
несуществ. обл.
Время (МСК)Темп. СВетерВлажностьДавлениеОблачностьОсадки
09:00+19З, 1 м/с45%1018 гПаясно
10:00+20ЮЗ, 2 м/с44%1017 гПаясно
11:00+20ЮЗ, 2 м/с49%1017 гПаясно
12:00+21ЮЗ, 2 м/с51%1016 гПас прояснениями
13:00+21ЮЗ, 2 м/с53%1016 гПаоблачно
14:00+21З, 2 м/с52%1016 гПамалооблачно
15:00+22З, 3 м/с49%1015 гПаясно
16:00+22З, 3 м/с48%1015 гПаясно
17:00+22СЗ, 4 м/с50%1015 гПаясно
18:00+21СЗ, 4 м/с53%1014 гПаясно
19:00+19СЗ, 3 м/с60%1014 гПаясно
20:00+18С, 2 м/с69%1015 гПаясно
21:00+17С, 1 м/с78%1015 гПаясно
22:00+16СВ, 1 м/с82%1015 гПаясно
23:00+16В, 2 м/с78%1015 гПаясно
27 апреля
00:00+16СВ, 2 м/с73%1015 гПаясно
01:00+16СВ, 2 м/с67%1015 гПаясно
02:00+15СВ, 2 м/с67%1015 гПаясно
03:00+15СВ, 3 м/с63%1015 гПаясно
04:00+16СВ, 3 м/с60%1014 гПаясно
05:00+16СВ, 3 м/с57%1015 гПаясно
06:00+16СВ, 3 м/с56%1014 гПаясно
07:00+18СВ, 3 м/с55%1013 гПаясно
08:00+20С, 1 м/с55%1013 гПаясно
09:00+21ЮЗ, 2 м/с54%1012 гПаясно
10:00+21ЮЗ, 2 м/с56%1012 гПаясно
11:00+21ЮЗ, 2 м/с56%1012 гПаясно
12:00+22З, 2 м/с55%1012 гПаясно
13:00+23З, 2 м/с53%1012 гПамалооблачно
14:00+23З, 3 м/с50%1012 гПас прояснениями
15:00+24З, 2 м/с45%1011 гПаоблачно
16:00+24З, 2 м/с44%1011 гПаоблачно
17:00+23СЗ, 2 м/с45%1011 гПаоблачно
18:00+23СЗ, 2 м/с48%1011 гПамалооблачно
19:00+21СЗ, 2 м/с58%1011 гПаясно
20:00+20С, 2 м/с68%1012 гПаясно
21:00+18С, 2 м/с76%1013 гПаясно
22:00+18СВ, 2 м/с77%1013 гПаясно
23:00+18ЮВ, 4 м/с76%1014 гПаясно
28 апреля
00:00+15Ю, 4 м/с91%1014 гПас прояснениями
01:00+15ЮВ, 2 м/с91%1015 гПамалооблачно
02:00+14ЮВ, 1 м/с92%1015 гПаясно
03:00+14ЮВ, 1 м/с93%1015 гПаясно
04:00+13Ю, 1 м/с94%1015 гПаясно
05:00+13З, 1 м/с95%1016 гПаясно
06:00+13СЗ, 2 м/с95%1016 гПамалооблачно
07:00+14З, 1 м/с92%1016 гПаясно
08:00+16ЮЗ, 2 м/с86%1016 гПамалооблачно
09:00+17ЮЗ, 1 м/с80%1016 гПаясно